createdAt,value
2023-03-07T00:01:07.291Z,79.45
2023-03-07T00:03:37.144Z,79.58
2023-03-07T00:06:08.853Z,79.53
2023-03-07T00:09:01.113Z,79.61
2023-03-07T00:11:30.593Z,79.84
2023-03-07T00:14:00.007Z,79.95
2023-03-07T00:16:30.266Z,80.00
2023-03-07T00:19:01.033Z,80.19
2023-03-07T00:21:32.681Z,80.41
2023-03-07T00:24:02.599Z,80.57
2023-03-07T00:26:36.278Z,80.95
2023-03-07T00:29:06.269Z,81.22
2023-03-07T00:31:55.045Z,81.57
2023-03-07T00:34:26.050Z,81.92
2023-03-07T00:36:55.066Z,81.99
2023-03-07T00:39:28.423Z,82.18
2023-03-07T00:41:57.881Z,82.39
2023-03-07T00:44:31.687Z,82.52
2023-03-07T00:47:25.548Z,82.43
2023-03-07T00:49:54.714Z,82.44
2023-03-07T00:52:23.116Z,82.49
2023-03-07T00:54:56.436Z,82.51
2023-03-07T00:57:32.948Z,82.69
2023-03-07T01:00:02.573Z,82.56
2023-03-07T01:02:35.989Z,82.80
2023-03-07T01:05:08.511Z,82.91
2023-03-07T01:07:37.803Z,83.01
2023-03-07T01:10:08.832Z,83.03
2023-03-07T01:12:57.133Z,83.03
2023-03-07T01:15:27.848Z,83.12
2023-03-07T01:17:56.969Z,83.27
2023-03-07T01:20:26.112Z,83.47
2023-03-07T01:22:54.810Z,83.55
2023-03-07T01:25:24.084Z,83.43
2023-03-07T01:27:56.387Z,83.65
2023-03-07T01:30:27.806Z,83.56
2023-03-07T01:32:58.538Z,83.65
2023-03-07T01:35:29.233Z,83.74
2023-03-07T01:38:00.920Z,83.80
2023-03-07T01:40:30.934Z,83.79
2023-03-07T01:43:26.275Z,83.69
2023-03-07T01:46:38.285Z,83.81
2023-03-07T01:49:17.694Z,83.63
2023-03-07T01:52:08.805Z,83.67
2023-03-07T01:54:42.719Z,83.52
2023-03-07T01:57:11.310Z,83.47
2023-03-07T01:59:45.286Z,83.52
2023-03-07T02:02:18.492Z,83.41
2023-03-07T02:04:57.406Z,83.60
2023-03-07T02:07:29.850Z,83.63
2023-03-07T02:09:59.637Z,83.53
2023-03-07T02:12:28.601Z,83.54
2023-03-07T02:14:57.604Z,83.39
2023-03-07T02:17:32.076Z,83.43
2023-03-07T02:20:06.693Z,83.23
2023-03-07T02:22:40.839Z,83.22
2023-03-07T02:25:28.367Z,83.01
2023-03-07T02:27:56.992Z,83.01
2023-03-07T02:30:27.136Z,83.14
2023-03-07T02:33:00.198Z,83.17
2023-03-07T02:35:34.048Z,83.25
2023-03-07T02:38:03.780Z,83.45
2023-03-07T02:40:39.942Z,83.30
2023-03-07T02:43:11.834Z,83.47
2023-03-07T02:45:41.367Z,83.40
2023-03-07T02:48:12.084Z,83.23
2023-03-07T02:50:43.345Z,83.46
2023-03-07T02:53:13.873Z,83.34
2023-03-07T02:55:43.584Z,83.42
2023-03-07T02:58:15.757Z,83.56
2023-03-07T03:03:26.621Z,83.59
2023-03-07T03:06:00.988Z,83.49
2023-03-07T03:08:31.785Z,83.58
2023-03-07T03:11:01.082Z,83.58
2023-03-07T03:13:30.914Z,83.55
2023-03-07T03:16:01.957Z,83.50
2023-03-07T03:18:30.775Z,83.39
2023-03-07T03:21:00.387Z,83.43
2023-03-07T03:23:29.147Z,83.38
2023-03-07T03:26:00.503Z,83.43
2023-03-07T03:28:31.478Z,83.50
2023-03-07T03:31:08.788Z,83.38
2023-03-07T03:33:41.006Z,83.45
2023-03-07T03:36:11.667Z,83.58
2023-03-07T03:38:40.854Z,83.65
2023-03-07T03:41:16.212Z,83.52
2023-03-07T03:43:46.924Z,83.73
2023-03-07T03:46:17.078Z,83.86
2023-03-07T03:48:53.705Z,83.70
2023-03-07T03:51:27.146Z,83.80
2023-03-07T03:53:58.746Z,83.66
2023-03-07T03:56:28.722Z,83.79
2023-03-07T03:58:57.524Z,83.69
2023-03-07T04:01:28.536Z,83.53
2023-03-07T04:03:57.892Z,83.49
2023-03-07T04:06:28.477Z,83.31
2023-03-07T04:08:59.610Z,83.12
2023-03-07T04:11:35.783Z,83.31
2023-03-07T04:14:04.614Z,83.22
2023-03-07T04:16:35.819Z,83.20
2023-03-07T04:19:05.929Z,83.17
2023-03-07T04:21:44.181Z,83.13
2023-03-07T04:24:13.737Z,83.21
2023-03-07T04:26:44.137Z,83.20
2023-03-07T04:29:14.295Z,83.08
2023-03-07T04:31:47.256Z,83.09
2023-03-07T04:34:18.981Z,82.90
2023-03-07T04:36:59.608Z,82.90
2023-03-07T04:39:28.329Z,82.96
2023-03-07T04:42:11.456Z,82.99
2023-03-07T04:44:42.567Z,82.89
2023-03-07T04:47:27.372Z,82.87
2023-03-07T04:50:02.394Z,82.94
2023-03-07T04:52:38.167Z,82.96
2023-03-07T04:55:07.853Z,82.92
2023-03-07T04:58:05.572Z,82.86
2023-03-07T05:00:34.138Z,82.78
2023-03-07T05:03:06.188Z,82.54
2023-03-07T05:05:48.292Z,82.43
2023-03-07T05:08:17.949Z,82.14
2023-03-07T05:10:46.694Z,82.13
2023-03-07T05:13:17.939Z,81.91
2023-03-07T05:16:20.342Z,81.70
2023-03-07T05:18:49.735Z,81.36
2023-03-07T05:21:29.171Z,81.39
2023-03-07T05:24:07.931Z,80.88
2023-03-07T05:26:40.963Z,80.66
2023-03-07T05:29:19.222Z,80.43
2023-03-07T05:31:51.966Z,80.22
2023-03-07T05:34:22.013Z,79.94
2023-03-07T05:37:04.749Z,79.73
2023-03-07T05:39:34.182Z,79.40
2023-03-07T05:42:05.648Z,79.45
2023-03-07T05:44:36.676Z,78.95
2023-03-07T05:47:07.508Z,78.64
2023-03-07T05:49:41.674Z,78.37
2023-03-07T05:52:13.368Z,78.17
2023-03-07T05:54:42.442Z,77.82
2023-03-07T05:57:11.721Z,77.65
2023-03-07T05:59:43.969Z,77.37
2023-03-07T06:02:16.051Z,77.51
2023-03-07T06:04:54.274Z,77.16
2023-03-07T06:07:29.781Z,77.32
2023-03-07T06:10:00.678Z,77.02
2023-03-07T06:12:29.493Z,76.64
2023-03-07T06:14:59.208Z,76.69
2023-03-07T06:17:36.118Z,76.43
2023-03-07T06:20:06.402Z,76.07
2023-03-07T06:22:38.391Z,75.54
2023-03-07T06:25:08.972Z,75.29
2023-03-07T06:27:43.464Z,74.82
2023-03-07T06:30:14.376Z,74.10
2023-03-07T06:32:46.428Z,73.87
2023-03-07T06:35:15.354Z,74.30
2023-03-07T06:37:43.908Z,74.88
2023-03-07T06:40:15.835Z,75.46
2023-03-07T06:42:45.133Z,75.99
2023-03-07T06:45:16.216Z,76.76
2023-03-07T06:47:45.386Z,77.67
2023-03-07T06:50:19.315Z,78.87
2023-03-07T06:53:00.372Z,79.87
2023-03-07T06:55:30.180Z,80.64
2023-03-07T06:58:04.973Z,81.40
2023-03-07T07:00:34.141Z,82.07
2023-03-07T07:03:16.448Z,82.92
2023-03-07T07:05:46.353Z,83.52
2023-03-07T07:08:17.502Z,84.23
2023-03-07T07:10:48.023Z,84.69
2023-03-07T07:13:21.610Z,85.49
2023-03-07T07:15:55.475Z,85.95
2023-03-07T07:18:24.866Z,86.42
2023-03-07T07:20:55.564Z,86.82
2023-03-07T07:23:29.267Z,87.21
2023-03-07T07:25:58.090Z,87.52
2023-03-07T07:28:29.885Z,88.06
2023-03-07T07:30:58.394Z,88.31
2023-03-07T07:33:29.141Z,88.42
2023-03-07T07:35:59.565Z,88.69
2023-03-07T07:38:45.383Z,88.79
2023-03-07T07:41:22.681Z,89.32
2023-03-07T07:43:55.711Z,89.37
2023-03-07T07:46:34.569Z,89.78
2023-03-07T07:49:09.117Z,90.12
2023-03-07T07:51:43.155Z,90.10
2023-03-07T07:54:13.324Z,90.53
2023-03-07T07:56:45.408Z,90.55
2023-03-07T07:59:21.331Z,90.72
2023-03-07T08:02:00.849Z,90.83
2023-03-07T08:04:37.481Z,90.80
2023-03-07T08:07:09.522Z,90.92
2023-03-07T08:09:46.316Z,91.06
2023-03-07T08:12:16.049Z,91.16
2023-03-07T08:14:48.908Z,91.38
2023-03-07T08:17:18.207Z,91.45
2023-03-07T08:20:02.860Z,91.60
2023-03-07T08:22:40.630Z,91.61
2023-03-07T08:25:35.313Z,91.73
2023-03-07T08:28:06.720Z,91.82
2023-03-07T08:30:38.415Z,91.54
2023-03-07T08:33:11.320Z,91.65
2023-03-07T08:35:49.543Z,91.73
2023-03-07T08:38:26.187Z,91.58
2023-03-07T08:41:17.014Z,91.26
2023-03-07T08:44:07.605Z,91.15
2023-03-07T08:46:40.061Z,91.07
2023-03-07T08:49:13.682Z,90.83
2023-03-07T08:51:52.749Z,90.81
2023-03-07T08:54:34.422Z,90.87
2023-03-07T08:57:05.668Z,90.65
2023-03-07T08:59:41.821Z,89.69
2023-03-07T09:03:04.905Z,89.52
2023-03-07T09:05:41.274Z,88.66
2023-03-07T09:08:32.736Z,88.51
2023-03-07T09:11:05.734Z,88.26
2023-03-07T09:13:49.774Z,87.72
2023-03-07T09:16:20.892Z,87.49
2023-03-07T09:19:10.819Z,87.38
2023-03-07T09:25:58.310Z,86.85
2023-03-07T09:28:40.342Z,86.49
2023-03-07T09:31:54.511Z,86.05
2023-03-07T09:34:24.325Z,85.47
2023-03-07T09:36:53.169Z,85.08
2023-03-07T09:39:26.440Z,84.92
2023-03-07T09:42:33.836Z,84.85
2023-03-07T09:45:31.160Z,84.89
2023-03-07T09:48:34.703Z,84.01
2023-03-07T09:51:42.722Z,82.24
2023-03-07T09:54:23.951Z,78.22
2023-03-07T09:57:09.057Z,72.94
2023-03-07T09:59:49.737Z,69.39
2023-03-07T10:02:36.341Z,67.24
2023-03-07T10:05:09.019Z,65.54
2023-03-07T10:07:46.204Z,65.20
2023-03-07T10:10:42.905Z,65.33
2023-03-07T10:13:45.172Z,64.93
2023-03-07T10:16:39.302Z,65.71
2023-03-07T10:19:35.792Z,66.78
2023-03-07T10:22:09.525Z,66.88
2023-03-07T10:24:54.988Z,67.25
2023-03-07T10:27:26.835Z,67.78
2023-03-07T10:30:00.800Z,67.94
2023-03-07T10:32:30.007Z,65.60
2023-03-07T10:35:18.810Z,62.86
2023-03-07T10:37:52.825Z,60.37
2023-03-07T10:40:44.204Z,59.23
2023-03-07T10:44:00.412Z,58.74
2023-03-07T10:46:55.764Z,56.12
2023-03-07T10:52:54.884Z,53.00
2023-03-07T10:55:36.461Z,53.62
2023-03-07T10:58:24.337Z,54.60
2023-03-07T11:01:25.761Z,55.48
2023-03-07T11:04:08.520Z,55.90
2023-03-07T11:09:55.792Z,57.44
2023-03-07T11:12:39.956Z,55.51
2023-03-07T11:15:52.847Z,52.43
2023-03-07T11:18:33.011Z,48.27
2023-03-07T11:21:03.552Z,46.37
2023-03-07T11:24:00.597Z,45.10
2023-03-07T11:26:34.746Z,44.60
2023-03-07T11:29:13.508Z,44.89
2023-03-07T11:32:11.031Z,44.84
2023-03-07T11:34:41.695Z,44.51
2023-03-07T11:37:24.372Z,44.75
2023-03-07T11:40:31.090Z,45.00
2023-03-07T11:43:05.689Z,45.54
2023-03-07T11:46:04.277Z,44.92
2023-03-07T11:49:02.867Z,43.15
2023-03-07T11:52:02.149Z,41.29
2023-03-07T11:55:00.634Z,39.07
2023-03-07T11:58:03.472Z,38.19
2023-03-07T12:01:19.103Z,38.61
2023-03-07T12:04:45.777Z,40.06
2023-03-07T12:07:23.636Z,41.80
2023-03-07T12:10:04.587Z,42.91
2023-03-07T12:13:09.418Z,43.35
2023-03-07T12:15:51.156Z,44.22
2023-03-07T12:18:41.907Z,45.08
2023-03-07T12:21:22.809Z,45.65
2023-03-07T12:23:59.783Z,46.72
2023-03-07T12:26:43.969Z,47.03
2023-03-07T12:29:38.093Z,47.83
2023-03-07T12:32:20.720Z,48.12
2023-03-07T12:35:00.869Z,48.43
2023-03-07T12:37:40.811Z,48.72
2023-03-07T12:40:23.777Z,49.13
2023-03-07T12:43:24.531Z,49.43
2023-03-07T12:46:03.913Z,49.77
2023-03-07T12:48:36.009Z,49.67
2023-03-07T12:51:26.755Z,49.80
2023-03-07T12:53:59.594Z,49.72
2023-03-07T12:56:41.932Z,49.42
2023-03-07T12:59:15.708Z,49.56
2023-03-07T13:01:54.224Z,50.44
2023-03-07T13:04:43.907Z,50.80
2023-03-07T13:07:49.544Z,50.72
2023-03-07T13:10:22.846Z,51.01
2023-03-07T13:12:54.773Z,50.58
2023-03-07T13:15:27.978Z,50.41
2023-03-07T13:18:02.317Z,50.85
2023-03-07T13:20:43.524Z,50.97
2023-03-07T13:23:26.615Z,50.82
2023-03-07T13:26:10.780Z,51.39
2023-03-07T13:29:04.155Z,51.19
2023-03-07T13:31:47.813Z,51.39
2023-03-07T13:35:05.519Z,51.35
2023-03-07T13:37:58.988Z,50.95
2023-03-07T13:44:36.304Z,51.35
2023-03-07T13:47:06.625Z,51.77
2023-03-07T13:49:38.943Z,51.93
2023-03-07T13:55:31.231Z,52.10
2023-03-07T14:01:42.226Z,52.50
2023-03-07T14:04:54.724Z,52.48
2023-03-07T14:07:29.070Z,52.44
2023-03-07T14:10:19.701Z,52.56
2023-03-07T14:13:12.233Z,52.84
2023-03-07T14:16:16.405Z,52.63
2023-03-07T14:19:00.211Z,53.15
2023-03-07T14:22:08.721Z,53.18
2023-03-07T14:25:00.446Z,53.27
2023-03-07T14:27:34.831Z,53.34
2023-03-07T14:30:18.708Z,53.54
2023-03-07T14:33:04.242Z,53.32
2023-03-07T14:35:41.405Z,53.37
2023-03-07T14:38:26.902Z,53.52
2023-03-07T14:41:27.766Z,53.45
2023-03-07T14:44:40.528Z,53.03
2023-03-07T14:47:56.480Z,53.55
2023-03-07T14:50:32.224Z,53.63
2023-03-07T14:53:12.895Z,53.81
2023-03-07T14:55:42.762Z,53.92
2023-03-07T14:58:21.351Z,53.82
2023-03-07T15:01:03.108Z,53.88
2023-03-07T15:03:37.088Z,54.24
2023-03-07T15:06:14.746Z,54.12
2023-03-07T15:08:47.497Z,54.42
2023-03-07T15:11:19.921Z,54.59
2023-03-07T15:14:17.698Z,55.08
2023-03-07T15:16:51.261Z,55.11
2023-03-07T15:19:53.926Z,55.08
2023-03-07T15:22:40.627Z,55.47
2023-03-07T15:25:23.974Z,55.40
2023-03-07T15:28:06.883Z,55.43
2023-03-07T15:30:41.480Z,55.38
2023-03-07T15:33:19.395Z,55.34
2023-03-07T15:36:12.928Z,55.80
2023-03-07T15:38:53.208Z,55.96
2023-03-07T15:41:37.201Z,56.29
2023-03-07T15:44:06.023Z,56.34
2023-03-07T15:46:41.505Z,56.24
2023-03-07T15:49:41.207Z,56.39
2023-03-07T15:52:37.473Z,56.11
2023-03-07T15:55:15.617Z,56.55
2023-03-07T15:58:04.623Z,56.81
2023-03-07T16:00:38.828Z,57.19
2023-03-07T16:03:29.020Z,57.61
2023-03-07T16:06:00.799Z,58.13
2023-03-07T16:08:29.970Z,58.29
2023-03-07T16:11:03.969Z,58.56
2023-03-07T16:14:02.532Z,58.65
2023-03-07T16:16:34.352Z,58.70
2023-03-07T16:19:07.381Z,58.57
2023-03-07T16:21:38.496Z,58.77
2023-03-07T16:24:09.875Z,58.91
2023-03-07T16:26:39.193Z,59.20
2023-03-07T16:29:20.855Z,58.96
2023-03-07T16:32:04.485Z,58.73
2023-03-07T16:34:38.504Z,58.63
2023-03-07T16:37:09.352Z,58.87
2023-03-07T16:39:53.322Z,58.90
2023-03-07T16:42:35.366Z,59.34
2023-03-07T16:45:05.680Z,59.50
2023-03-07T16:47:37.743Z,59.98
2023-03-07T16:50:17.560Z,60.22
2023-03-07T16:53:01.125Z,60.68
2023-03-07T16:55:33.301Z,60.84
2023-03-07T16:58:13.519Z,60.79
2023-03-07T17:00:45.716Z,60.70
2023-03-07T17:03:22.210Z,60.57
2023-03-07T17:05:57.476Z,60.60
2023-03-07T17:08:30.680Z,60.96
2023-03-07T17:11:29.530Z,61.39
2023-03-07T17:14:22.823Z,61.33
2023-03-07T17:16:51.567Z,61.28
2023-03-07T17:19:27.176Z,61.80
2023-03-07T17:22:10.598Z,61.48
2023-03-07T17:24:55.161Z,61.32
2023-03-07T17:27:29.804Z,61.42
2023-03-07T17:30:18.536Z,61.64
2023-03-07T17:32:48.662Z,61.79
2023-03-07T17:35:19.010Z,62.23
2023-03-07T17:37:50.801Z,62.49
2023-03-07T17:40:27.648Z,62.60
2023-03-07T17:43:00.263Z,62.69
2023-03-07T17:45:31.164Z,62.96
2023-03-07T17:48:00.458Z,63.00
2023-03-07T17:50:33.950Z,63.23
2023-03-07T17:53:09.754Z,63.39
2023-03-07T17:55:45.242Z,63.42
2023-03-07T17:58:23.464Z,63.46
2023-03-07T18:00:52.545Z,63.45
2023-03-07T18:03:24.666Z,63.66
2023-03-07T18:05:55.856Z,63.82
2023-03-07T18:08:30.021Z,63.61
2023-03-07T18:14:10.191Z,63.73
2023-03-07T18:17:31.392Z,63.61
2023-03-07T18:20:28.019Z,63.75
2023-03-07T18:23:14.130Z,63.66
2023-03-07T18:25:46.240Z,63.65
2023-03-07T18:28:16.880Z,63.69
2023-03-07T18:31:39.587Z,63.61
2023-03-07T18:34:29.617Z,63.84
2023-03-07T18:37:03.263Z,63.97
2023-03-07T18:39:38.284Z,64.06
2023-03-07T18:42:21.446Z,64.30
2023-03-07T18:45:02.665Z,64.37
2023-03-07T18:47:35.560Z,64.22
2023-03-07T18:50:06.207Z,64.19
2023-03-07T18:52:40.652Z,64.26
2023-03-07T18:55:10.828Z,64.02
2023-03-07T18:57:44.181Z,63.57
2023-03-07T19:00:15.702Z,63.69
2023-03-07T19:02:48.756Z,63.49
2023-03-07T19:05:32.385Z,63.17
2023-03-07T19:08:16.363Z,63.38
2023-03-07T19:10:49.728Z,63.40
2023-03-07T19:13:20.408Z,63.45
2023-03-07T19:16:26.631Z,63.60
2023-03-07T19:19:07.320Z,63.35
2023-03-07T19:21:36.972Z,63.22
2023-03-07T19:24:10.737Z,63.35
2023-03-07T19:26:43.580Z,63.41
2023-03-07T19:29:13.333Z,63.70
2023-03-07T19:31:44.179Z,63.52
2023-03-07T19:34:18.006Z,63.65
2023-03-07T19:36:50.599Z,63.83
2023-03-07T19:39:20.775Z,64.05
2023-03-07T19:41:50.570Z,64.12
2023-03-07T19:44:22.942Z,64.16
2023-03-07T19:46:53.867Z,64.78
2023-03-07T19:49:39.402Z,65.02
2023-03-07T19:52:14.040Z,65.18
2023-03-07T19:54:45.843Z,65.60
2023-03-07T19:57:17.910Z,65.66
2023-03-07T19:59:54.656Z,66.34
2023-03-07T20:02:27.350Z,66.42
2023-03-07T20:05:03.926Z,66.70
2023-03-07T20:07:34.995Z,67.07
2023-03-07T20:10:03.965Z,67.54
2023-03-07T20:12:36.008Z,68.28
2023-03-07T20:15:08.611Z,68.44
2023-03-07T20:17:41.803Z,69.04
2023-03-07T20:20:11.839Z,69.57
2023-03-07T20:22:56.202Z,69.65
2023-03-07T20:25:37.129Z,70.25
2023-03-07T20:28:17.662Z,70.37
2023-03-07T20:30:46.322Z,70.68
2023-03-07T20:33:15.590Z,71.19
2023-03-07T20:36:01.874Z,71.43
2023-03-07T20:38:34.730Z,71.83
2023-03-07T20:41:08.847Z,72.28
2023-03-07T20:43:39.640Z,72.87
2023-03-07T20:46:13.096Z,73.05
2023-03-07T20:48:43.433Z,73.42
2023-03-07T20:51:21.476Z,73.57
2023-03-07T20:53:53.140Z,73.93
2023-03-07T20:56:22.668Z,74.14
2023-03-07T20:58:52.425Z,74.38
2023-03-07T21:01:21.110Z,74.25
2023-03-07T21:03:51.768Z,74.93
2023-03-07T21:06:31.794Z,75.18
2023-03-07T21:09:01.490Z,75.36
2023-03-07T21:11:55.406Z,75.67
2023-03-07T21:14:27.050Z,76.11
2023-03-07T21:17:02.801Z,76.53
2023-03-07T21:19:34.376Z,76.69
2023-03-07T21:22:15.699Z,77.15
2023-03-07T21:24:44.702Z,77.31
2023-03-07T21:27:13.405Z,77.36
2023-03-07T21:29:43.358Z,77.58
2023-03-07T21:32:18.474Z,77.95
2023-03-07T21:34:52.358Z,78.20
2023-03-07T21:37:23.828Z,78.40
2023-03-07T21:39:58.113Z,78.55
2023-03-07T21:42:33.151Z,78.97
2023-03-07T21:45:13.789Z,79.33
2023-03-07T21:48:00.663Z,79.66
2023-03-07T21:50:38.673Z,79.88
2023-03-07T21:53:12.517Z,79.95
2023-03-07T21:55:58.527Z,80.07
2023-03-07T21:58:36.283Z,80.44
2023-03-07T22:01:12.892Z,80.63
2023-03-07T22:03:44.386Z,80.86
2023-03-07T22:06:22.228Z,81.16
2023-03-07T22:08:53.313Z,81.36
2023-03-07T22:11:24.578Z,81.50
2023-03-07T22:13:54.658Z,81.63
2023-03-07T22:16:38.885Z,81.76
2023-03-07T22:19:09.781Z,81.93
2023-03-07T22:21:38.657Z,82.11
2023-03-07T22:24:11.710Z,82.18
2023-03-07T22:27:08.305Z,82.17
2023-03-07T22:29:38.516Z,82.39
2023-03-07T22:32:09.120Z,82.46
2023-03-07T22:34:41.350Z,82.60
2023-03-07T22:37:10.196Z,82.58
2023-03-07T22:39:52.067Z,82.80
2023-03-07T22:42:23.934Z,83.01
2023-03-07T22:45:18.278Z,82.95
2023-03-07T22:47:49.905Z,83.05
2023-03-07T22:50:30.469Z,83.03
2023-03-07T22:52:59.873Z,83.14
2023-03-07T22:55:30.544Z,83.24
2023-03-07T22:58:02.626Z,83.40
2023-03-07T23:00:34.767Z,83.37
2023-03-07T23:03:14.407Z,83.41
2023-03-07T23:05:42.955Z,83.42
2023-03-07T23:08:18.547Z,83.37
2023-03-07T23:10:49.730Z,83.42
2023-03-07T23:13:20.508Z,83.43
2023-03-07T23:15:49.915Z,83.69
2023-03-07T23:18:32.956Z,83.61
2023-03-07T23:21:02.882Z,83.56
2023-03-07T23:23:34.347Z,83.59
2023-03-07T23:26:17.341Z,83.72
2023-03-07T23:28:48.744Z,83.76
2023-03-07T23:31:28.584Z,83.79
2023-03-07T23:34:05.250Z,83.90
2023-03-07T23:36:39.174Z,83.85
2023-03-07T23:39:13.374Z,83.89
2023-03-07T23:41:43.816Z,84.02
2023-03-07T23:44:14.273Z,84.11
2023-03-07T23:46:43.236Z,84.06
2023-03-07T23:49:13.155Z,84.10
2023-03-07T23:51:44.731Z,84.24
2023-03-07T23:54:19.080Z,84.14
2023-03-07T23:56:49.175Z,84.31
2023-03-07T23:59:18.609Z,84.60
